Estació municipal de Aiguafreda (Osona, P.N. del Montseny)

Consulta les dades en temps real de l'estació municipal de Aiguafreda





Hora UTC 09:45
Temperatura 34.7 ºC
Sòl 15 cm 38.2 ºC
Humitat 27.5 %
Pressió 1022.5 hPa
Pluja 0.0 mm
Velocitat vent 8.4 km/h
Direcció vent S

Dades diàries 2026-09-05



Hora UTC (hivern +1h; estiu +2h)
Temperatura (ºC) Humitat (%) Pressió (hPa) Velocitat vent (km/h) Precipitació (mm)
Hora UTC Aire Sòl 15 cm Humitat Pressió Vel. Dir. Vel. Max Dir. Intent. màx 5 min.
00:05 20.9 19.5 79.0 1021.4 0.0 NNE 0.0 NNE 0.0
00:10 20.8 19.4 79.3 1021.4 0.0 NNE 0.0 NNE 0.0
00:15 20.8 19.4 79.5 1021.4 0.0 NNE 0.0 NNE 0.0
00:20 20.7 19.3 79.7 1021.4 0.0 NNE 0.0 NNE 0.0
00:25 20.7 19.2 79.7 1021.4 0.0 NNE 0.0 NNE 0.0
00:30 20.6 19.2 79.8 1021.4 0.0 NNE 0.0 ENE 0.0
00:35 20.6 19.2 79.9 1021.4 0.0 NNE 0.0 N 0.0
00:40 20.6 19.1 80.0 1021.4 0.0 NNE 0.0 N 0.0
00:45 20.5 19.0 79.9 1021.4 0.0 NNE 0.0 N 0.0
00:50 20.4 18.9 80.0 1021.4 0.0 NNE 0.0 N 0.0
00:55 20.4 18.9 80.2 1021.4 0.0 NNE 0.0 N 0.0
01:00 20.3 18.8 80.4 1021.4 0.0 NNE 0.0 N 0.0
01:05 20.3 18.8 80.4 1021.3 0.0 NNE 0.0 N 0.0
01:10 20.2 18.7 80.6 1021.4 0.0 NNE 0.0 N 0.0
01:15 20.2 18.7 80.8 1021.4 0.0 NNE 0.0 N 0.0
01:20 20.1 18.6 80.9 1021.4 0.0 NNE 0.0 N 0.0
01:25 20.1 18.6 80.9 1021.4 0.0 NNE 0.0 N 0.0
01:30 20.1 18.5 80.9 1021.3 0.0 NNE 0.0 N 0.0
01:35 20.0 18.5 80.7 1021.3 0.0 NNE 0.0 N 0.0
01:40 20.0 18.5 80.6 1021.3 0.0 NNE 0.0 N 0.0
01:45 19.9 18.5 80.8 1021.3 0.0 NNE 0.0 N 0.0
01:50 19.9 18.4 80.9 1021.3 0.0 NNE 0.0 N 0.0
01:55 19.9 18.4 80.9 1021.3 0.0 NNE 0.0 N 0.0
02:00 19.9 18.4 81.0 1021.3 0.0 NNE 0.0 N 0.0
02:05 19.8 18.3 81.0 1021.3 0.0 NNE 0.0 N 0.0
02:10 19.8 18.3 80.9 1021.3 0.0 NNE 0.0 N 0.0
02:15 19.8 18.3 80.9 1021.3 0.0 NNE 0.0 N 0.0
02:20 19.8 18.3 80.9 1021.3 0.0 NNE 0.0 N 0.0
02:25 19.7 18.3 80.8 1021.3 0.0 NNE 0.0 N 0.0
02:30 19.7 18.2 80.7 1021.3 0.0 NNE 0.0 N 0.0
02:35 19.7 18.2 80.5 1021.3 0.0 NNE 0.0 N 0.0
02:40 19.7 18.3 80.5 1021.3 0.0 NNE 0.0 N 0.0
02:45 19.7 18.3 80.2 1021.3 0.0 NNE 0.0 N 0.0
02:50 19.7 18.2 80.3 1021.3 0.0 NNE 0.0 WSW 0.0
02:55 19.6 18.2 80.3 1021.3 0.0 NNE 0.0 WSW 0.0
03:00 19.6 18.1 80.6 1021.3 0.0 NNE 0.0 WSW 0.0
03:05 19.6 18.1 80.6 1021.3 0.0 NNE 0.0 WSW 0.0
03:10 19.5 18.0 80.6 1021.3 0.0 NNE 0.0 WSW 0.0
03:15 19.5 18.0 80.4 1021.3 0.0 NNE 0.0 WSW 0.0
03:20 19.5 18.1 79.9 1021.4 0.0 NNE 0.0 S 0.0
03:25 19.5 18.0 79.6 1021.4 0.0 NNE 0.0 W 0.0
03:30 19.5 17.9 79.7 1021.4 0.0 NNE 0.0 NNW 0.0
03:35 19.4 17.9 79.8 1021.5 0.0 NNE 0.0 NNW 0.0
03:40 19.4 17.9 80.0 1021.5 0.0 NNE 0.0 NNW 0.0
03:45 19.4 17.9 80.3 1021.5 0.0 NNE 0.0 NNW 0.0
03:50 19.4 17.8 80.6 1021.5 0.0 NNE 0.0 NNW 0.0
03:55 19.4 17.8 80.7 1021.5 0.0 NNE 0.0 NNW 0.0
04:00 19.3 17.8 80.9 1021.5 0.0 NNE 0.0 NNW 0.0
04:05 19.3 17.8 81.4 1021.5 0.0 NNE 0.0 NNW 0.0
04:10 19.3 17.8 81.5 1021.5 0.0 NNE 0.0 NNW 0.0
04:15 19.3 17.7 81.7 1021.5 0.0 NNE 0.0 W 0.0
04:20 19.2 17.7 81.8 1021.5 0.0 NNE 0.0 W 0.0
04:25 19.2 17.7 82.0 1021.5 0.0 NNE 0.0 W 0.0
04:30 19.2 17.7 82.0 1021.5 0.0 NNE 0.0 W 0.0
04:35 19.2 17.7 81.9 1021.6 0.0 NNE 0.0 N 0.0
04:40 19.2 17.7 82.0 1021.6 0.0 NNE 0.0 N 0.0
04:45 19.2 17.7 82.0 1021.6 0.0 NNE 0.0 NNW 0.0
04:50 19.2 17.6 82.0 1021.6 0.0 NNE 0.0 SSE 0.0
04:55 19.1 17.5 81.9 1021.7 0.0 NNE 0.0 SSE 0.0
05:00 19.0 17.5 82.1 1021.7 0.0 NNE 0.0 SSE 0.0
05:05 19.0 17.5 82.3 1021.7 0.0 NNE 0.0 SSE 0.0
05:10 19.0 17.5 82.5 1021.7 0.0 NNE 0.0 SSE 0.0
05:15 19.0 17.5 82.5 1021.8 0.0 NNE 0.0 SSE 0.0
05:20 18.9 17.4 82.5 1021.8 0.0 NNE 0.0 NE 0.0
05:25 18.9 17.4 82.6 1021.8 0.0 NNE 0.0 NE 0.0
05:30 18.9 17.5 82.4 1021.9 0.0 NNE 0.0 NE 0.0
05:35 18.9 17.5 82.3 1021.9 0.0 NNE 0.0 SSE 0.0
05:40 18.9 17.5 82.1 1021.9 0.0 NNE 0.0 ESE 0.0
05:45 18.9 17.6 81.9 1022.0 0.0 NNE 0.0 ESE 0.0
05:50 19.0 17.6 81.8 1022.0 0.0 NNE 0.0 ESE 0.0
05:55 19.0 17.7 81.7 1022.0 0.0 NNE 0.0 SE 0.0
06:00 19.0 17.9 81.0 1022.0 0.0 NNE 0.0 SE 0.0
06:05 19.1 17.9 80.9 1022.0 0.0 NNE 0.0 SE 0.0
06:10 19.1 18.1 80.5 1022.0 0.0 NNE 0.0 SE 0.0
06:15 19.2 18.2 79.8 1022.1 0.0 NNE 0.0 SE 0.0
06:20 19.4 18.4 79.4 1022.1 0.0 NNE 0.0 SE 0.0
06:25 19.5 18.5 79.2 1022.2 0.0 NNE 0.0 SE 0.0
06:30 19.6 18.7 79.2 1022.2 0.0 NNE 0.0 SE 0.0
06:35 19.7 18.9 78.6 1022.3 0.0 NNE 0.0 SE 0.0
06:40 19.9 19.2 77.9 1022.3 0.0 NNE 0.0 SE 0.0
06:45 20.1 19.4 76.9 1022.3 0.0 NNE 0.0 SSE 0.0
06:50 20.4 19.6 76.4 1022.4 0.0 NNE 0.0 SSE 0.0
06:55 20.7 19.9 75.5 1022.3 0.0 NNE 0.0 SE 0.0
07:00 21.0 20.2 74.8 1022.3 0.0 NNE 0.0 W 0.0
07:05 21.4 20.6 73.6 1022.3 0.0 NNE 0.0 SW 0.0
07:10 21.9 21.1 71.7 1022.4 0.0 NE 3.4 NE 0.0
07:15 22.5 21.6 69.8 1022.3 0.0 NNE 0.0 ESE 0.0
07:20 23.0 22.2 68.0 1022.4 1.0 NE 11.5 N 0.0
07:25 23.5 22.6 66.2 1022.4 3.7 ENE 11.5 NE 0.0
07:30 23.8 23.0 64.7 1022.4 4.2 ENE 14.2 NNE 0.0
07:35 24.3 23.4 63.1 1022.4 2.7 ENE 14.2 ENE 0.0
07:40 24.7 23.8 61.3 1022.4 4.9 ENE 11.5 NE 0.0
07:45 25.4 24.1 58.9 1022.4 3.8 ENE 11.5 NNE 0.0
07:50 26.1 24.6 56.2 1022.4 4.3 ENE 14.2 NNE 0.0
07:55 26.6 25.0 53.9 1022.4 4.9 NE 11.5 NE 0.0
08:00 27.0 25.5 52.6 1022.4 3.3 ENE 11.5 ENE 0.0
08:05 27.3 26.0 51.5 1022.4 1.8 NE 14.2 NNE 0.0
08:10 27.6 26.4 51.0 1022.4 1.8 ENE 11.5 NE 0.0
08:15 27.9 27.3 49.5 1022.4 0.0 NNE 0.0 NE 0.0
08:20 28.3 28.6 47.6 1022.4 3.8 NE 11.5 NNE 0.0
08:25 28.7 29.6 47.4 1022.4 1.0 ENE 8.8 ENE 0.0
08:30 29.2 30.5 46.3 1022.4 1.3 NNE 8.8 N 0.0
08:35 29.4 31.1 45.9 1022.4 0.8 NE 8.8 NNE 0.0
08:40 29.7 31.7 45.1 1022.5 2.4 NNE 11.5 NNW 0.0
08:45 30.1 32.5 44.5 1022.4 1.4 N 8.8 N 0.0
08:50 30.7 33.4 42.8 1022.5 1.8 NNE 8.8 N 0.0
08:55 31.2 34.0 41.9 1022.5 0.7 NNE 8.8 NNE 0.0
09:00 31.4 34.5 41.3 1022.5 2.9 N 8.8 NNE 0.0
09:05 31.5 34.7 40.3 1022.6 1.0 NNW 6.1 WNW 0.0
09:10 31.9 35.1 38.6 1022.5 0.0 NNE 0.0 SW 0.0
09:15 32.5 35.7 37.3 1022.5 1.0 SW 6.1 WSW 0.0
09:20 33.1 37.3 36.1 1022.4 0.7 SE 8.8 SE 0.0
09:25 34.0 38.2 34.1 1022.5 0.0 NNE 0.0 SSE 0.0
09:30 34.5 38.7 32.0 1022.3 3.2 SSE 16.9 SSE 0.0
09:35 34.4 37.8 28.5 1022.5 8.4 SSE 14.2 SE 0.0
09:40 34.6 38.2 27.8 1022.4 8.1 S 16.9 SSE 0.0
09:45 34.7 38.2 27.5 1022.5 8.4 S 19.6 SSE 0.0
Màxima 34.7 38.7 82.6 1022.6 8.4 S 19.6 SSE 0.0
Mínima 18.9 17.4 27.5 1021.3
Total 0.0